createdAt,value
2018-07-04T00:00:16.320Z,71.23
2018-07-04T00:02:56.032Z,91.53
2018-07-04T00:05:35.722Z,55.70
2018-07-04T00:08:15.281Z,10.73
2018-07-04T00:10:54.802Z,80.83
2018-07-04T00:13:34.435Z,93.70
2018-07-04T00:16:14.047Z,94.67
2018-07-04T00:18:53.721Z,88.90
2018-07-04T00:21:33.296Z,83.73
2018-07-04T00:24:13.126Z,78.87
2018-07-04T00:26:52.785Z,77.33
2018-07-04T00:29:32.514Z,74.37
2018-07-04T00:32:11.979Z,5.63
2018-07-04T00:34:51.611Z,19.13
2018-07-04T00:37:31.272Z,5.07
2018-07-04T00:40:10.774Z,4.60
2018-07-04T00:42:50.437Z,4.70
2018-07-04T00:45:29.831Z,4.70
2018-07-04T00:48:09.548Z,4.90
2018-07-04T00:50:49.091Z,5.43
2018-07-04T00:53:28.786Z,5.23
2018-07-04T00:56:08.459Z,4.60
2018-07-04T00:58:48.083Z,57.90
2018-07-04T01:01:27.696Z,64.17
2018-07-04T01:04:07.347Z,45.00
2018-07-04T01:06:46.936Z,26.43
2018-07-04T01:09:26.684Z,10.17
2018-07-04T01:12:06.215Z,20.97
2018-07-04T01:14:45.935Z,6.10
2018-07-04T01:17:25.435Z,33.50
2018-07-04T01:20:05.047Z,37.60
2018-07-04T01:22:45.067Z,45.13
2018-07-04T01:25:25.309Z,4.70
2018-07-04T01:28:04.815Z,4.43
2018-07-04T01:30:44.449Z,4.80
2018-07-04T01:33:24.146Z,4.73
2018-07-04T01:36:03.654Z,4.80
2018-07-04T01:38:43.330Z,4.47
2018-07-04T01:41:23.051Z,4.90
2018-07-04T01:44:02.583Z,5.13
2018-07-04T01:46:42.186Z,5.43
2018-07-04T01:49:21.714Z,7.87
2018-07-04T01:52:01.195Z,26.90
2018-07-04T01:54:41.042Z,31.37
2018-07-04T01:57:20.335Z,40.57
2018-07-04T02:00:00.030Z,40.90
2018-07-04T02:02:39.803Z,39.40
2018-07-04T02:05:19.315Z,37.47
2018-07-04T02:07:58.951Z,35.37
2018-07-04T02:10:38.513Z,32.97
2018-07-04T02:13:18.124Z,21.93
2018-07-04T02:15:57.760Z,4.33
2018-07-04T02:18:37.415Z,4.73
2018-07-04T02:21:17.004Z,18.17
2018-07-04T02:23:56.615Z,4.10
2018-07-04T02:26:36.151Z,4.17
2018-07-04T02:29:16.778Z,8.80
2018-07-04T02:31:56.315Z,28.80
2018-07-04T02:34:35.991Z,28.77
2018-07-04T02:37:15.511Z,26.03
2018-07-04T02:39:55.155Z,22.00
2018-07-04T02:42:34.742Z,20.10
2018-07-04T02:45:14.363Z,7.97
2018-07-04T02:47:54.176Z,21.93
2018-07-04T02:50:34.815Z,23.27
2018-07-04T02:53:14.403Z,21.53
2018-07-04T02:55:53.996Z,5.10
2018-07-04T02:58:33.729Z,4.00
2018-07-04T03:01:13.202Z,4.10
2018-07-04T03:03:53.164Z,3.87
2018-07-04T03:06:32.923Z,4.00
2018-07-04T03:09:12.623Z,19.53
2018-07-04T03:11:52.263Z,7.90
2018-07-04T03:14:32.018Z,4.03
2018-07-04T03:17:11.439Z,13.90
2018-07-04T03:19:51.233Z,15.50
2018-07-04T03:22:31.870Z,3.83
2018-07-04T03:25:11.450Z,4.00
2018-07-04T03:27:51.188Z,10.20
2018-07-04T03:30:30.707Z,12.00
2018-07-04T03:33:10.441Z,15.23
2018-07-04T03:35:50.011Z,123.73
2018-07-04T03:38:29.844Z,14.33
2018-07-04T03:41:09.560Z,17.00
2018-07-04T03:43:49.242Z,4.07
2018-07-04T03:46:28.479Z,12.13
2018-07-04T03:49:08.528Z,6.70
2018-07-04T03:51:48.075Z,3.87
2018-07-04T03:54:27.556Z,3.70
2018-07-04T03:57:07.064Z,3.97
2018-07-04T03:59:47.411Z,4.03
2018-07-04T04:02:27.507Z,3.80
2018-07-04T04:05:06.876Z,3.87
2018-07-04T04:07:46.371Z,4.03
2018-07-04T04:10:26.088Z,4.17
2018-07-04T04:13:05.729Z,3.73
2018-07-04T04:15:45.030Z,4.23
2018-07-04T04:18:24.883Z,5.53
2018-07-04T04:21:04.488Z,3.70
2018-07-04T04:23:44.107Z,3.93
2018-07-04T04:26:23.811Z,8.73
2018-07-04T04:29:03.474Z,11.83
2018-07-04T04:31:42.991Z,10.83
2018-07-04T04:34:22.791Z,11.00
2018-07-04T04:37:02.504Z,11.00
2018-07-04T04:39:42.128Z,10.37
2018-07-04T04:42:21.620Z,10.10
2018-07-04T04:45:01.287Z,10.97
2018-07-04T04:47:41.048Z,8.87
2018-07-04T04:50:20.587Z,4.33
2018-07-04T04:53:00.292Z,9.57
2018-07-04T04:55:40.044Z,4.97
2018-07-04T04:58:19.707Z,4.60
2018-07-04T05:00:59.048Z,4.40
2018-07-04T05:03:38.806Z,6.37
2018-07-04T05:06:18.515Z,7.97
2018-07-04T05:08:58.082Z,9.60
2018-07-04T05:11:37.684Z,8.47
2018-07-04T05:14:17.264Z,8.87
2018-07-04T05:16:56.821Z,4.43
2018-07-04T05:19:36.239Z,4.73
2018-07-04T05:22:15.922Z,4.10
2018-07-04T05:24:55.581Z,4.70
2018-07-04T05:27:35.963Z,4.60
2018-07-04T05:30:15.400Z,4.67
2018-07-04T05:32:54.887Z,4.47
2018-07-04T05:35:34.434Z,5.53
2018-07-04T05:38:14.086Z,4.53
2018-07-04T05:40:53.927Z,4.83
2018-07-04T05:43:33.799Z,5.30
2018-07-04T05:46:13.076Z,4.53
2018-07-04T05:48:52.788Z,4.60
2018-07-04T05:51:32.459Z,4.17
2018-07-04T05:54:12.127Z,4.40
2018-07-04T05:56:51.631Z,4.90
2018-07-04T05:59:31.418Z,6.10
2018-07-04T06:02:11.031Z,4.67
2018-07-04T06:04:50.799Z,4.67
2018-07-04T06:07:30.379Z,4.33
2018-07-04T06:10:10.087Z,4.33
2018-07-04T06:12:49.614Z,3.77
2018-07-04T06:15:29.255Z,4.20
2018-07-04T06:18:08.956Z,4.87
2018-07-04T06:20:48.575Z,4.37
2018-07-04T06:23:28.202Z,4.47
2018-07-04T06:26:07.837Z,4.43
2018-07-04T06:28:47.497Z,4.77
2018-07-04T06:31:27.015Z,4.90
2018-07-04T06:34:06.653Z,4.60
2018-07-04T06:36:46.359Z,4.80
2018-07-04T06:39:19.672Z,4.60
2018-07-04T06:41:46.779Z,4.80
2018-07-04T06:44:13.839Z,4.50
2018-07-04T06:46:40.895Z,4.87
2018-07-04T06:49:08.066Z,4.70
2018-07-04T06:51:35.133Z,4.30
2018-07-04T06:54:02.189Z,4.37
2018-07-04T06:56:29.251Z,4.87
2018-07-04T06:58:56.339Z,4.57
2018-07-04T07:01:23.407Z,4.30
2018-07-04T07:03:56.616Z,4.43
2018-07-04T07:06:36.159Z,4.40
2018-07-04T07:09:15.859Z,5.20
2018-07-04T07:11:55.263Z,4.43
2018-07-04T07:14:35.075Z,4.57
2018-07-04T07:17:14.636Z,4.23
2018-07-04T07:19:56.846Z,5.53
2018-07-04T07:22:36.755Z,4.37
2018-07-04T07:25:16.213Z,4.63
2018-07-04T07:27:55.873Z,4.03
2018-07-04T07:30:35.629Z,4.10
2018-07-04T07:33:15.308Z,5.17
2018-07-04T07:35:54.855Z,5.20
2018-07-04T07:38:34.387Z,4.30
2018-07-04T07:41:13.735Z,3.87
2018-07-04T07:43:53.558Z,5.07
2018-07-04T07:46:32.809Z,4.77
2018-07-04T07:49:12.678Z,5.07
2018-07-04T07:51:52.099Z,4.87
2018-07-04T07:54:31.755Z,4.30
2018-07-04T07:57:11.083Z,4.17
2018-07-04T07:59:50.995Z,4.20
2018-07-04T08:02:30.386Z,4.57
2018-07-04T08:05:10.645Z,4.50
2018-07-04T08:07:50.319Z,4.67
2018-07-04T08:10:29.926Z,5.27
2018-07-04T08:13:09.657Z,5.20
2018-07-04T08:15:49.149Z,4.53
2018-07-04T08:18:28.887Z,4.70
2018-07-04T08:21:08.387Z,4.73
2018-07-04T08:23:47.939Z,4.53
2018-07-04T08:26:27.635Z,5.00
2018-07-04T08:29:07.403Z,4.90
2018-07-04T08:31:46.675Z,4.87
2018-07-04T08:34:26.124Z,4.90
2018-07-04T08:37:05.616Z,4.60
2018-07-04T08:39:45.363Z,4.80
2018-07-04T08:42:25.629Z,4.70
2018-07-04T08:45:05.220Z,4.73
2018-07-04T08:47:44.931Z,4.57
2018-07-04T08:50:24.590Z,4.73
2018-07-04T08:53:04.088Z,4.70
2018-07-04T08:55:43.436Z,4.77
2018-07-04T08:58:22.904Z,5.20
2018-07-04T09:01:02.212Z,4.90
2018-07-04T09:03:41.580Z,5.17
2018-07-04T09:06:20.640Z,4.90
2018-07-04T09:08:59.983Z,5.00
2018-07-04T09:11:39.183Z,4.93
2018-07-04T09:14:18.520Z,4.70
2018-07-04T09:16:57.683Z,4.17
2018-07-04T09:19:37.036Z,4.60
2018-07-04T09:22:16.411Z,4.37
2018-07-04T09:24:55.975Z,4.60
2018-07-04T09:27:35.247Z,4.97
2018-07-04T09:30:14.348Z,5.20
2018-07-04T09:32:53.884Z,4.67
2018-07-04T09:35:37.234Z,3.63
2018-07-04T09:38:16.772Z,3.40
2018-07-04T09:40:56.128Z,3.50
2018-07-04T09:43:35.907Z,3.90
2018-07-04T09:46:15.355Z,3.70
2018-07-04T09:48:54.954Z,3.43
2018-07-04T09:51:34.560Z,4.00
2018-07-04T09:54:14.158Z,3.27
2018-07-04T09:56:53.735Z,4.17
2018-07-04T09:59:33.451Z,4.07
2018-07-04T10:02:13.044Z,5.30
2018-07-04T10:04:52.675Z,4.93
2018-07-04T10:07:32.337Z,4.70
2018-07-04T10:10:11.891Z,4.33
2018-07-04T10:12:51.875Z,5.47
2018-07-04T10:15:31.467Z,4.80
2018-07-04T10:18:11.203Z,6.67
2018-07-04T10:20:50.651Z,5.07
2018-07-04T10:23:30.324Z,5.40
2018-07-04T10:26:09.936Z,6.00
2018-07-04T10:28:50.224Z,6.50
2018-07-04T10:31:30.719Z,5.70
2018-07-04T10:34:10.684Z,5.87
2018-07-04T10:36:50.311Z,6.10
2018-07-04T10:39:29.935Z,8.53
2018-07-04T10:42:09.102Z,6.13
2018-07-04T10:44:48.649Z,5.90
2018-07-04T10:47:27.939Z,6.23
2018-07-04T10:50:07.636Z,6.50
2018-07-04T10:52:47.347Z,7.07
2018-07-04T10:55:26.971Z,6.27
2018-07-04T10:58:06.556Z,5.20
2018-07-04T11:00:46.040Z,5.80
2018-07-04T11:03:25.628Z,5.97
2018-07-04T11:06:04.991Z,6.63
2018-07-04T11:08:44.745Z,6.20
2018-07-04T11:11:24.270Z,6.63
2018-07-04T11:14:04.213Z,6.53
2018-07-04T11:16:43.830Z,6.67
2018-07-04T11:19:23.515Z,7.23
2018-07-04T11:22:03.305Z,6.87
2018-07-04T11:24:42.775Z,6.97
2018-07-04T11:27:21.855Z,5.93
2018-07-04T11:30:01.331Z,5.77
2018-07-04T11:32:40.694Z,6.43
2018-07-04T11:35:20.005Z,7.23
2018-07-04T11:37:59.459Z,7.50
2018-07-04T11:40:38.763Z,7.50
2018-07-04T11:43:18.076Z,7.93
2018-07-04T11:45:54.463Z,9.03
2018-07-04T11:48:21.953Z,8.93
2018-07-04T11:50:49.035Z,8.53
2018-07-04T11:53:16.185Z,8.10
2018-07-04T11:55:43.219Z,7.30
2018-07-04T11:58:10.344Z,7.33
2018-07-04T12:00:37.447Z,7.10
2018-07-04T12:03:10.664Z,7.40
2018-07-04T12:05:45.824Z,6.77
2018-07-04T12:08:19.135Z,10.17
2018-07-04T12:10:46.606Z,6.97
2018-07-04T12:13:13.739Z,6.80
2018-07-04T12:15:41.086Z,5.80
2018-07-04T12:18:08.139Z,6.50
2018-07-04T12:20:35.187Z,5.67
2018-07-04T12:23:02.288Z,5.37
2018-07-04T12:25:29.340Z,4.87
2018-07-04T12:27:56.616Z,5.57
2018-07-04T12:30:23.675Z,5.57
2018-07-04T12:32:50.808Z,5.90
2018-07-04T12:35:17.911Z,5.40
2018-07-04T12:37:44.983Z,5.27
2018-07-04T12:40:12.255Z,5.10
2018-07-04T12:42:39.444Z,4.57
2018-07-04T12:45:06.492Z,4.90
2018-07-04T12:47:33.580Z,5.10
2018-07-04T12:50:00.670Z,4.83
2018-07-04T12:52:27.968Z,4.60
2018-07-04T12:55:01.199Z,4.40
2018-07-04T12:57:40.672Z,4.30
2018-07-04T13:00:19.956Z,4.20
2018-07-04T13:02:59.790Z,4.00
2018-07-04T13:05:39.316Z,3.80
2018-07-04T13:08:18.872Z,4.37
2018-07-04T13:10:58.539Z,4.37
2018-07-04T13:13:38.187Z,4.67
2018-07-04T13:16:17.986Z,4.53
2018-07-04T13:18:57.507Z,3.80
2018-07-04T13:21:37.256Z,4.23
2018-07-04T13:24:16.836Z,3.97
2018-07-04T13:26:56.398Z,4.27
2018-07-04T13:29:36.330Z,3.80
2018-07-04T13:32:16.539Z,3.60
2018-07-04T13:34:56.040Z,3.67
2018-07-04T13:37:35.698Z,3.87
2018-07-04T13:40:15.123Z,3.50
2018-07-04T13:42:54.765Z,2.90
2018-07-04T13:45:34.499Z,2.93
2018-07-04T13:48:14.140Z,2.83
2018-07-04T13:50:53.791Z,3.10
2018-07-04T13:53:34.048Z,3.80
2018-07-04T13:56:13.527Z,3.20
2018-07-04T13:58:53.251Z,3.00
2018-07-04T14:01:32.830Z,3.17
2018-07-04T14:04:12.560Z,3.00
2018-07-04T14:06:53.165Z,4.13
2018-07-04T14:09:32.817Z,4.13
2018-07-04T14:12:12.770Z,4.20
2018-07-04T14:14:52.599Z,3.10
2018-07-04T14:17:31.986Z,3.30
2018-07-04T14:20:11.255Z,3.63
2018-07-04T14:22:50.742Z,3.40
2018-07-04T14:25:30.047Z,3.33
2018-07-04T14:28:09.494Z,3.90
2018-07-04T14:30:48.999Z,3.60
2018-07-04T14:33:28.487Z,3.87
2018-07-04T14:36:07.562Z,3.90
2018-07-04T14:38:46.973Z,3.60
2018-07-04T14:41:26.239Z,3.80
2018-07-04T14:44:06.099Z,3.73
2018-07-04T14:46:45.274Z,4.30
2018-07-04T14:49:24.680Z,4.40
2018-07-04T14:52:04.260Z,4.10
2018-07-04T14:54:43.743Z,3.80
2018-07-04T14:57:22.951Z,4.20
2018-07-04T15:00:02.635Z,4.30
2018-07-04T15:02:42.412Z,18.07
2018-07-04T15:05:21.749Z,5.20
2018-07-04T15:08:01.568Z,4.63
2018-07-04T15:10:40.719Z,4.40
2018-07-04T15:13:20.139Z,4.47
2018-07-04T15:15:59.803Z,4.50
2018-07-04T15:18:39.403Z,4.57
2018-07-04T15:21:19.131Z,4.40
2018-07-04T15:23:58.997Z,4.47
2018-07-04T15:26:38.363Z,4.30
2018-07-04T15:29:18.260Z,4.10
2018-07-04T15:31:57.893Z,32.70
2018-07-04T15:34:37.564Z,4.60
2018-07-04T15:37:17.366Z,3.60
2018-07-04T15:39:56.959Z,13.73
2018-07-04T15:42:36.585Z,3.50
2018-07-04T15:45:16.255Z,3.50
2018-07-04T15:47:56.147Z,3.50
2018-07-04T15:50:35.601Z,4.30
2018-07-04T15:53:15.317Z,7.57
2018-07-04T15:55:54.886Z,4.50
2018-07-04T15:58:34.655Z,60.13
2018-07-04T16:01:14.339Z,179.53
2018-07-04T16:03:54.171Z,7.80
2018-07-04T16:06:33.827Z,4.77
2018-07-04T16:09:13.663Z,4.73
2018-07-04T16:11:53.249Z,3.90
2018-07-04T16:14:33.014Z,5.03
2018-07-04T16:17:12.563Z,4.53
2018-07-04T16:19:52.371Z,4.10
2018-07-04T16:22:31.993Z,3.80
2018-07-04T16:25:11.532Z,4.20
2018-07-04T16:27:51.207Z,4.57
2018-07-04T16:30:30.906Z,4.03
2018-07-04T16:33:10.693Z,3.70
2018-07-04T16:35:50.196Z,4.90
2018-07-04T16:38:29.969Z,4.13
2018-07-04T16:41:09.445Z,4.50
2018-07-04T16:43:49.164Z,4.20
2018-07-04T16:46:28.767Z,4.20
2018-07-04T16:49:08.464Z,3.93
2018-07-04T16:51:48.157Z,4.10
2018-07-04T16:54:27.880Z,3.83
2018-07-04T16:57:07.445Z,4.70
2018-07-04T16:59:47.480Z,4.03
2018-07-04T17:02:26.761Z,3.90
2018-07-04T17:05:06.307Z,3.73
2018-07-04T17:07:45.785Z,4.20
2018-07-04T17:10:24.953Z,4.40
2018-07-04T17:13:04.440Z,4.83
2018-07-04T17:15:43.858Z,4.93
2018-07-04T17:18:23.367Z,4.20
2018-07-04T17:21:02.724Z,4.73
2018-07-04T17:23:42.147Z,4.37
2018-07-04T17:26:21.583Z,4.50
2018-07-04T17:29:01.127Z,4.53
2018-07-04T17:31:40.568Z,4.03
2018-07-04T17:34:20.001Z,4.30
2018-07-04T17:36:59.301Z,4.27
2018-07-04T17:39:38.806Z,4.23
2018-07-04T17:42:18.376Z,4.30
2018-07-04T17:44:57.704Z,4.83
2018-07-04T17:47:37.111Z,4.23
2018-07-04T17:50:17.129Z,4.83
2018-07-04T17:52:57.616Z,4.63
2018-07-04T17:55:36.948Z,4.37
2018-07-04T17:58:16.647Z,4.80
2018-07-04T18:00:56.307Z,4.40
2018-07-04T18:03:35.974Z,4.37
2018-07-04T18:06:15.657Z,4.60
2018-07-04T18:08:55.521Z,4.30
2018-07-04T18:11:35.107Z,4.50
2018-07-04T18:14:14.872Z,4.47
2018-07-04T18:16:54.640Z,4.70
2018-07-04T18:19:34.398Z,4.70
2018-07-04T18:22:13.935Z,5.00
2018-07-04T18:24:53.790Z,4.90
2018-07-04T18:27:33.583Z,4.90
2018-07-04T18:30:13.448Z,4.60
2018-07-04T18:32:53.321Z,5.07
2018-07-04T18:35:33.207Z,4.70
2018-07-04T18:38:13.088Z,5.20
2018-07-04T18:40:52.725Z,4.97
2018-07-04T18:43:32.597Z,4.87
2018-07-04T18:46:12.015Z,4.50
2018-07-04T18:48:51.662Z,4.67
2018-07-04T18:51:31.269Z,4.63
2018-07-04T18:54:11.008Z,5.10
2018-07-04T18:56:50.845Z,4.37
2018-07-04T18:59:30.607Z,4.30
2018-07-04T19:02:11.106Z,4.30
2018-07-04T19:04:51.236Z,4.13
2018-07-04T19:07:30.884Z,4.50
2018-07-04T19:10:10.553Z,4.50
2018-07-04T19:12:50.371Z,4.00
2018-07-04T19:15:30.007Z,4.07
2018-07-04T19:18:09.655Z,4.13
2018-07-04T19:20:49.172Z,4.40
2018-07-04T19:23:28.938Z,4.20
2018-07-04T19:26:08.438Z,4.43
2018-07-04T19:28:48.191Z,4.23
2018-07-04T19:31:27.756Z,4.50
2018-07-04T19:34:07.529Z,4.57
2018-07-04T19:36:47.039Z,4.60
2018-07-04T19:39:26.872Z,4.00
2018-07-04T19:42:07.604Z,4.63
2018-07-04T19:44:47.043Z,3.60
2018-07-04T19:47:26.157Z,4.00
2018-07-04T19:50:05.813Z,4.50
2018-07-04T19:52:45.122Z,4.50
2018-07-04T19:55:24.395Z,4.10
2018-07-04T19:58:03.808Z,4.70
2018-07-04T20:00:43.732Z,4.50
2018-07-04T20:03:24.034Z,4.17
2018-07-04T20:06:03.539Z,4.20
2018-07-04T20:08:43.034Z,4.23
2018-07-04T20:11:22.780Z,5.20
2018-07-04T20:14:02.477Z,4.77
2018-07-04T20:16:42.024Z,5.40
2018-07-04T20:19:21.649Z,5.30
2018-07-04T20:22:01.512Z,5.70
2018-07-04T20:24:41.194Z,5.60
2018-07-04T20:27:20.869Z,5.63
2018-07-04T20:30:00.450Z,5.03
2018-07-04T20:32:40.244Z,5.17
2018-07-04T20:35:19.842Z,5.40
2018-07-04T20:37:59.640Z,6.10
2018-07-04T20:40:39.063Z,5.40
2018-07-04T20:43:18.793Z,5.10
2018-07-04T20:45:58.544Z,5.23
2018-07-04T20:48:38.311Z,4.60
2018-07-04T20:51:17.895Z,4.60
2018-07-04T20:53:57.676Z,4.87
2018-07-04T20:56:37.323Z,5.13
2018-07-04T20:59:17.103Z,5.10
2018-07-04T21:01:56.615Z,4.77
2018-07-04T21:04:36.287Z,4.73
2018-07-04T21:07:15.639Z,4.63
2018-07-04T21:09:55.843Z,5.30
2018-07-04T21:12:35.229Z,5.43
2018-07-04T21:15:14.797Z,5.93
2018-07-04T21:17:54.568Z,5.60
2018-07-04T21:20:33.747Z,5.20
2018-07-04T21:23:13.205Z,4.60
2018-07-04T21:25:52.862Z,4.77
2018-07-04T21:28:32.528Z,4.77
2018-07-04T21:31:12.115Z,5.00
2018-07-04T21:33:51.798Z,5.00
2018-07-04T21:36:31.452Z,5.07
2018-07-04T21:39:11.168Z,5.40
2018-07-04T21:41:50.716Z,5.00
2018-07-04T21:44:30.534Z,5.53
2018-07-04T21:47:10.215Z,5.30
2018-07-04T21:49:49.818Z,4.90
2018-07-04T21:52:29.836Z,5.00
2018-07-04T21:55:09.417Z,4.97
2018-07-04T21:57:49.211Z,5.20
2018-07-04T22:00:28.497Z,5.00
2018-07-04T22:03:07.979Z,4.80
2018-07-04T22:05:47.316Z,4.70
2018-07-04T22:08:26.736Z,6.60
2018-07-04T22:11:06.078Z,5.67
2018-07-04T22:13:45.455Z,5.50
2018-07-04T22:16:24.817Z,4.37
2018-07-04T22:19:04.352Z,6.87
2018-07-04T22:21:43.635Z,5.90
2018-07-04T22:24:23.159Z,5.33
2018-07-04T22:27:02.476Z,5.17
2018-07-04T22:29:41.817Z,4.90
2018-07-04T22:32:21.183Z,4.90
2018-07-04T22:35:00.557Z,5.20
2018-07-04T22:37:40.092Z,4.70
2018-07-04T22:40:19.410Z,5.13
2018-07-04T22:42:58.919Z,5.07
2018-07-04T22:45:38.337Z,5.10
2018-07-04T22:48:18.016Z,5.00
2018-07-04T22:50:57.809Z,5.03
2018-07-04T22:53:37.881Z,4.80
2018-07-04T22:56:17.849Z,5.10
2018-07-04T22:58:57.485Z,5.30
2018-07-04T23:01:37.081Z,5.20
2018-07-04T23:04:16.899Z,5.10
2018-07-04T23:06:56.459Z,6.07
2018-07-04T23:09:36.301Z,5.87
2018-07-04T23:12:15.921Z,5.87
2018-07-04T23:14:55.490Z,5.10
2018-07-04T23:17:35.064Z,5.50
2018-07-04T23:20:14.659Z,6.03
2018-07-04T23:22:54.359Z,5.60
2018-07-04T23:25:33.972Z,5.10
2018-07-04T23:28:13.635Z,5.10
2018-07-04T23:30:53.279Z,5.00
2018-07-04T23:33:32.960Z,5.10
2018-07-04T23:36:12.467Z,5.40
2018-07-04T23:38:52.153Z,4.80
2018-07-04T23:41:31.521Z,4.63
2018-07-04T23:44:11.192Z,5.13
2018-07-04T23:46:50.675Z,5.77
2018-07-04T23:49:30.435Z,5.07
2018-07-04T23:52:09.830Z,5.53
2018-07-04T23:54:50.329Z,4.73
2018-07-04T23:57:29.741Z,5.00
